Pagrindinis puslapis
METAR-TAF:

METAR-TAF

Oro uostai :

Fort Lauderdale Executive Airport

Fort Loderdeilas, Florida, Jungtinės Amerikos Valstijos

platuma: 26-12-00N, ilguma: 080-11-00W, Aukštis: 4 m

Dabartinis oras

Ataskaita buvo paskelbta 35 minutes, ne 01:53 UTC
Ramus vėjas
Temperatūra 24°C
Drėgmė 74%
Slėgis 1017 hPa
Matomumas: 16.1 km
Su prošvaistėmis ne aukštis 6500 ft

METAR: KFXE 290153Z AUTO 00000KT 10SM BKN065 24/19 A3004 RMK AO2 SLP175 T02390194 TSNO

Laikas: 21:28 (02:28 UTC)

Prognozė

Ataskaita buvo paskelbta 3 valandos ir 8 minutes, ne 23:20 UTC
Prognozė galioja nuo 29 metu 00 UTC su 29 metu 24 UTC
Vėjas 2 kt nuo kintamojo kryptimis
Matomumas: 10 km
Mažai debesys ne aukštis 3000 ft
Išsisklaidę debesys ne aukštis 25000 ft
Nuo 29 metu 1600 UTC
Vėjas 8 kt iš Pietryčių
Matomumas: 10 km
Išsisklaidę debesys ne aukštis 3000 ft
Išsisklaidę debesys ne aukštis 5000 ft

TAF: KFXE 282320Z 2900/2924 VRB02KT P6SM FEW030 SCT250 FM291600 14008KT P6SM SCT030 SCT050

Orai ataskaitas ir orų prognozės (METAR, TAF).

turimą stotys yra geltonos ir raudonos taškus žemėlapyje.

Perkelti pele per norėdami pamatyti stoties vardą.

Tada spustelėkite, norėdami matyti oro stebėjimo ir prognozės.

Norėdami pakeisti žemėlapį: spustelėkite ant žalios mygtukų su juodo kryžiaus žemyn,; žalią mygtuką su brūkšneliu, jei norite nutolinti; arba žalių rodyklių gretimoms žemėlapius.


METAR-TAF: